Terminal Aerodrome Forecast
Issued by NWS

Home | Current Version | Previous Version | Text Only | Print | Product List | Glossary On
Versions: 1 2 3 4 5 6 7 8 9 10 11 12 13
000
FTUS45 KTFX 041134
TAFBZN
TAF
KBZN 041134Z 0412/0512 17006KT P6SM SKC
     FM041700 35008KT P6SM SCT090 SCT150
     FM050300 04008KT P6SM VCTS SCT070CB BKN120
     FM050700 VRB05KT P6SM BKN150=

USA.gov is the U.S. government's official web portal to all federal, state and local government web resources and services.